createdAt,value
2022-10-11T00:06:54.442Z,83.84
2022-10-11T00:11:48.315Z,83.96
2022-10-11T00:47:46.786Z,85.61
2022-10-11T00:51:39.593Z,85.58
2022-10-11T01:19:16.029Z,85.26
2022-10-11T01:35:06.209Z,84.94
2022-10-11T01:58:25.207Z,84.89
2022-10-11T02:10:22.451Z,84.56
2022-10-11T02:23:41.270Z,84.28
2022-10-11T02:39:08.940Z,84.35
2022-10-11T02:50:30.289Z,85.09
2022-10-11T02:54:12.197Z,85.23
2022-10-11T03:02:16.137Z,84.82
2022-10-11T03:05:37.538Z,85.33
2022-10-11T04:13:19.939Z,86.42
2022-10-11T04:23:04.198Z,86.37
2022-10-11T04:33:59.782Z,86.73
2022-10-11T05:01:51.906Z,85.91
2022-10-11T05:05:40.016Z,85.16
2022-10-11T05:09:28.778Z,85.22
2022-10-11T05:13:19.781Z,84.84
2022-10-11T06:00:36.341Z,85.76
2022-10-11T06:02:45.737Z,85.93
2022-10-11T07:01:42.242Z,84.90
2022-10-11T07:34:13.372Z,82.39
2022-10-11T07:43:29.426Z,81.24
2022-10-11T07:50:58.757Z,80.76
2022-10-11T08:07:38.322Z,79.16
2022-10-11T08:10:39.637Z,80.12
2022-10-11T09:29:49.572Z,76.31
2022-10-11T09:34:01.785Z,76.67
2022-10-11T09:37:34.049Z,76.49
2022-10-11T09:43:31.306Z,76.64
2022-10-11T09:45:59.278Z,76.67
2022-10-11T09:48:40.035Z,76.50
2022-10-11T09:51:19.914Z,75.79
2022-10-11T09:53:55.767Z,75.67
2022-10-11T09:56:26.430Z,75.62
2022-10-11T09:59:36.191Z,75.23
2022-10-11T10:02:13.276Z,75.05
2022-10-11T10:04:53.511Z,75.15
2022-10-11T10:07:25.225Z,75.77
2022-10-11T10:09:53.373Z,75.83
2022-10-11T10:12:26.077Z,75.73
2022-10-11T10:15:03.517Z,75.09
2022-10-11T10:17:32.321Z,74.97
2022-10-11T10:20:00.748Z,74.66
2022-10-11T10:22:34.108Z,75.26
2022-10-11T10:25:06.045Z,75.47
2022-10-11T10:27:34.340Z,75.13
2022-10-11T10:30:13.815Z,75.37
2022-10-11T10:33:00.120Z,74.73
2022-10-11T10:35:52.867Z,74.22
2022-10-11T10:38:29.934Z,74.16
2022-10-11T10:41:11.540Z,73.50
2022-10-11T10:43:42.344Z,73.07
2022-10-11T10:46:53.740Z,73.11
2022-10-11T10:49:54.441Z,72.92
2022-10-11T10:52:34.004Z,72.74
2022-10-11T10:55:38.362Z,72.05
2022-10-11T10:58:14.003Z,71.46
2022-10-11T11:00:56.780Z,71.22
2022-10-11T11:03:33.494Z,70.46
2022-10-11T11:06:12.435Z,70.02
2022-10-11T11:08:57.131Z,68.92
2022-10-11T11:12:02.029Z,69.33
2022-10-11T11:15:19.754Z,69.40
2022-10-11T11:18:00.157Z,68.89
2022-10-11T11:20:41.505Z,68.85
2022-10-11T11:23:41.658Z,68.22
2022-10-11T11:26:24.212Z,67.98
2022-10-11T11:29:40.256Z,67.96
2022-10-11T11:32:22.192Z,67.88
2022-10-11T11:35:01.192Z,67.89
2022-10-11T11:37:35.762Z,67.92
2022-10-11T11:40:12.642Z,68.13
2022-10-11T11:42:48.377Z,67.30
2022-10-11T11:45:28.375Z,67.73
2022-10-11T11:48:07.859Z,68.08
2022-10-11T11:50:40.385Z,67.57
2022-10-11T11:53:15.484Z,67.74
2022-10-11T11:55:54.124Z,67.51
2022-10-11T11:58:42.949Z,66.86
2022-10-11T12:01:47.905Z,66.91
2022-10-11T12:04:34.900Z,67.28
2022-10-11T12:07:17.742Z,67.93
2022-10-11T12:09:50.816Z,67.45
2022-10-11T12:12:45.660Z,67.14
2022-10-11T12:15:23.601Z,67.55
2022-10-11T12:17:58.603Z,67.42
2022-10-11T12:20:41.691Z,67.38
2022-10-11T12:23:31.082Z,67.26
2022-10-11T12:26:29.512Z,67.26
2022-10-11T12:29:28.191Z,66.87
2022-10-11T12:32:00.262Z,66.68
2022-10-11T12:37:33.273Z,66.10
2022-10-11T12:40:01.320Z,66.32
2022-10-11T12:42:35.489Z,65.59
2022-10-11T12:45:13.186Z,65.55
2022-10-11T12:47:46.975Z,65.76
2022-10-11T12:50:22.996Z,65.80
2022-10-11T12:53:12.054Z,65.88
2022-10-11T12:55:39.889Z,65.71
2022-10-11T12:58:14.098Z,65.06
2022-10-11T13:00:51.193Z,65.21
2022-10-11T13:03:41.219Z,65.60
2022-10-11T13:06:26.687Z,65.51
2022-10-11T13:09:00.225Z,65.53
2022-10-11T13:11:30.837Z,65.95
2022-10-11T13:14:09.890Z,66.30
2022-10-11T13:16:48.843Z,66.38
2022-10-11T13:19:17.684Z,66.29
2022-10-11T13:21:51.180Z,66.21
2022-10-11T13:24:19.281Z,65.71
2022-10-11T13:26:50.903Z,65.49
2022-10-11T13:29:31.874Z,65.23
2022-10-11T13:32:01.990Z,65.46
2022-10-11T13:34:35.344Z,65.17
2022-10-11T13:37:03.448Z,65.16
2022-10-11T13:39:36.798Z,65.25
2022-10-11T13:42:14.266Z,65.61
2022-10-11T13:44:44.014Z,65.77
2022-10-11T13:47:14.925Z,65.82
2022-10-11T13:50:30.314Z,66.01
2022-10-11T13:52:59.924Z,66.10
2022-10-11T13:55:32.787Z,66.46
2022-10-11T13:58:03.472Z,66.79
2022-10-11T14:00:35.110Z,67.03
2022-10-11T14:03:05.820Z,67.18
2022-10-11T14:05:40.068Z,66.89
2022-10-11T14:08:19.516Z,67.16
2022-10-11T14:10:50.715Z,67.44
2022-10-11T14:13:39.004Z,67.33
2022-10-11T14:16:18.413Z,67.26
2022-10-11T14:18:50.858Z,67.40
2022-10-11T14:21:27.334Z,67.66
2022-10-11T14:24:05.210Z,67.67
2022-10-11T14:26:38.386Z,67.91
2022-10-11T14:29:12.193Z,67.73
2022-10-11T14:31:42.151Z,67.75
2022-10-11T14:34:18.259Z,67.75
2022-10-11T14:36:46.871Z,67.81
2022-10-11T14:39:18.308Z,67.87
2022-10-11T14:41:47.030Z,67.89
2022-10-11T14:44:16.862Z,67.98
2022-10-11T14:46:46.506Z,68.45
2022-10-11T14:49:17.524Z,68.56
2022-10-11T14:51:48.161Z,68.33
2022-10-11T14:54:22.764Z,68.49
2022-10-11T14:56:57.026Z,68.69
2022-10-11T14:59:34.181Z,68.90
2022-10-11T15:02:03.232Z,69.13
2022-10-11T15:04:31.223Z,69.09
2022-10-11T15:06:59.365Z,69.26
2022-10-11T15:09:27.245Z,69.28
2022-10-11T15:11:55.918Z,69.30
2022-10-11T15:14:24.649Z,69.41
2022-10-11T15:16:53.146Z,69.43
2022-10-11T15:19:23.703Z,69.77
2022-10-11T15:21:51.915Z,69.62
2022-10-11T15:24:20.110Z,69.79
2022-10-11T15:26:49.058Z,69.89
2022-10-11T15:29:22.009Z,69.84
2022-10-11T15:31:50.601Z,70.15
2022-10-11T15:34:18.556Z,70.46
2022-10-11T15:36:46.370Z,70.53
2022-10-11T15:39:32.702Z,70.91
2022-10-11T15:42:00.586Z,71.06
2022-10-11T15:44:28.438Z,71.19
2022-10-11T15:46:56.295Z,71.43
2022-10-11T15:49:24.349Z,71.34
2022-10-11T15:51:52.233Z,71.21
2022-10-11T15:54:20.036Z,71.38
2022-10-11T15:56:48.075Z,71.69
2022-10-11T15:59:15.843Z,71.78
2022-10-11T16:01:43.726Z,71.88
2022-10-11T16:04:11.467Z,71.90
2022-10-11T16:06:41.208Z,71.98
2022-10-11T16:09:09.123Z,71.99
2022-10-11T16:11:37.000Z,72.16
2022-10-11T16:14:04.835Z,72.01
2022-10-11T16:16:32.626Z,72.34
2022-10-11T16:19:00.520Z,72.47
2022-10-11T16:21:28.325Z,72.65
2022-10-11T16:23:56.131Z,72.75
2022-10-11T16:26:23.930Z,73.00
2022-10-11T16:28:51.841Z,73.02
2022-10-11T16:31:21.090Z,73.12
2022-10-11T16:33:50.446Z,73.30
2022-10-11T16:36:37.071Z,73.44
2022-10-11T16:39:14.490Z,73.71
2022-10-11T16:41:42.887Z,73.70
2022-10-11T16:44:16.259Z,73.89
2022-10-11T16:46:48.425Z,73.92
2022-10-11T16:49:19.612Z,73.95
2022-10-11T16:51:47.579Z,73.90
2022-10-11T16:54:20.250Z,74.03
2022-10-11T16:56:50.278Z,74.07
2022-10-11T16:59:19.215Z,74.47
2022-10-11T17:01:47.356Z,74.57
2022-10-11T17:04:15.206Z,74.60
2022-10-11T17:06:45.867Z,74.43
2022-10-11T17:09:14.711Z,74.64
2022-10-11T17:11:43.261Z,74.69
2022-10-11T17:14:12.980Z,74.62
2022-10-11T17:16:40.812Z,74.84
2022-10-11T17:19:13.461Z,75.10
2022-10-11T17:21:41.756Z,75.10
2022-10-11T17:24:10.059Z,75.30
2022-10-11T17:26:38.045Z,75.16
2022-10-11T17:29:06.047Z,75.29
2022-10-11T17:31:33.998Z,75.63
2022-10-11T17:34:01.785Z,75.69
2022-10-11T17:36:34.640Z,75.44
2022-10-11T17:39:06.812Z,75.69
2022-10-11T17:41:35.020Z,75.65
2022-10-11T17:44:03.571Z,75.56
2022-10-11T17:46:34.160Z,75.98
2022-10-11T17:49:05.641Z,76.20
2022-10-11T17:51:35.747Z,76.23
2022-10-11T17:54:04.573Z,76.20
2022-10-11T17:56:37.414Z,76.41
2022-10-11T17:59:06.380Z,76.39
2022-10-11T18:01:34.488Z,76.49
2022-10-11T18:04:05.056Z,76.31
2022-10-11T18:06:39.393Z,76.25
2022-10-11T18:09:07.497Z,76.71
2022-10-11T18:11:35.745Z,76.70
2022-10-11T18:14:05.284Z,76.60
2022-10-11T18:16:34.181Z,76.72
2022-10-11T18:19:03.726Z,76.53
2022-10-11T18:21:34.725Z,76.55
2022-10-11T18:24:05.610Z,76.56
2022-10-11T18:26:34.420Z,76.67
2022-10-11T18:29:02.489Z,76.75
2022-10-11T18:31:33.903Z,77.06
2022-10-11T18:34:03.196Z,77.09
2022-10-11T18:36:32.763Z,76.93
2022-10-11T18:39:04.070Z,76.70
2022-10-11T18:41:33.227Z,76.94
2022-10-11T18:44:04.245Z,76.90
2022-10-11T18:46:32.919Z,76.88
2022-10-11T18:49:04.210Z,76.73
2022-10-11T18:51:37.358Z,76.90
2022-10-11T18:54:07.202Z,76.88
2022-10-11T18:56:36.616Z,77.19
2022-10-11T18:59:06.266Z,77.05
2022-10-11T19:01:39.721Z,77.09
2022-10-11T19:04:09.621Z,77.08
2022-10-11T19:06:40.923Z,76.74
2022-10-11T19:09:14.749Z,76.93
2022-10-11T19:11:42.375Z,77.09
2022-10-11T19:14:14.881Z,77.02
2022-10-11T19:16:49.680Z,77.03
2022-10-11T19:19:19.717Z,77.03
2022-10-11T19:21:48.891Z,77.11
2022-10-11T19:24:18.465Z,77.06
2022-10-11T19:26:47.002Z,77.34
2022-10-11T19:29:20.614Z,77.19
2022-10-11T19:31:49.716Z,77.40
2022-10-11T19:34:19.516Z,77.63
2022-10-11T19:36:50.146Z,77.63
2022-10-11T19:39:18.568Z,77.79
2022-10-11T19:41:46.697Z,77.87
2022-10-11T19:44:15.498Z,77.80
2022-10-11T19:46:51.539Z,77.86
2022-10-11T19:49:24.684Z,77.75
2022-10-11T19:51:55.250Z,77.45
2022-10-11T19:54:23.791Z,77.55
2022-10-11T19:56:51.897Z,77.31
2022-10-11T19:59:19.750Z,77.53
2022-10-11T20:01:52.371Z,77.32
2022-10-11T20:07:09.687Z,77.67
2022-10-11T20:09:37.516Z,77.78
2022-10-11T20:12:05.764Z,77.91
2022-10-11T20:14:33.965Z,78.11
2022-10-11T20:17:01.793Z,78.14
2022-10-11T20:19:31.012Z,77.89
2022-10-11T20:22:00.793Z,78.18
2022-10-11T20:24:34.354Z,78.02
2022-10-11T20:27:05.306Z,78.30
2022-10-11T20:29:33.726Z,78.25
2022-10-11T20:32:01.604Z,78.33
2022-10-11T20:34:29.563Z,78.33
2022-10-11T20:36:57.612Z,78.78
2022-10-11T20:39:25.537Z,78.79
2022-10-11T20:41:53.557Z,78.56
2022-10-11T20:44:21.555Z,78.63
2022-10-11T20:46:49.320Z,78.56
2022-10-11T20:49:19.955Z,78.30
2022-10-11T20:51:48.923Z,78.23
2022-10-11T20:54:16.940Z,78.20
2022-10-11T20:56:44.743Z,78.50
2022-10-11T20:59:12.539Z,78.42
2022-10-11T21:01:41.585Z,78.29
2022-10-11T21:04:17.574Z,78.12
2022-10-11T21:06:45.868Z,78.33
2022-10-11T21:09:16.355Z,78.51
2022-10-11T21:11:44.983Z,78.58
2022-10-11T21:14:13.030Z,78.40
2022-10-11T21:16:40.929Z,78.36
2022-10-11T21:19:15.155Z,78.53
2022-10-11T21:21:43.503Z,78.71
2022-10-11T21:24:11.310Z,78.52
2022-10-11T21:26:39.163Z,78.67
2022-10-11T21:29:07.667Z,78.56
2022-10-11T21:31:35.734Z,78.52
2022-10-11T21:34:05.249Z,78.72
2022-10-11T21:36:33.614Z,78.84
2022-10-11T21:39:01.569Z,78.84
2022-10-11T21:41:30.152Z,78.87
2022-10-11T21:43:58.295Z,79.02
2022-10-11T21:46:53.960Z,79.15
2022-10-11T21:49:16.998Z,79.48
2022-10-11T21:51:45.707Z,79.58
2022-10-11T21:54:13.423Z,79.47
2022-10-11T21:56:41.598Z,79.58
2022-10-11T21:59:12.280Z,79.64
2022-10-11T22:01:41.905Z,79.50
2022-10-11T22:04:10.988Z,79.66
2022-10-11T22:06:39.464Z,79.66
2022-10-11T22:09:08.697Z,79.67
2022-10-11T22:11:37.533Z,79.85
2022-10-11T22:14:05.825Z,79.86
2022-10-11T22:16:34.747Z,79.89
2022-10-11T22:19:02.915Z,79.96
2022-10-11T22:21:30.878Z,79.89
2022-10-11T22:23:58.874Z,80.01
2022-10-11T22:26:32.275Z,80.12
2022-10-11T22:29:00.614Z,80.18
2022-10-11T22:31:29.953Z,80.18
2022-10-11T22:34:00.550Z,80.20
2022-10-11T22:36:33.788Z,80.27
2022-10-11T22:39:02.796Z,80.52
2022-10-11T22:41:30.603Z,80.62
2022-10-11T22:43:58.351Z,80.70
2022-10-11T22:46:26.272Z,80.58
2022-10-11T22:48:54.141Z,80.88
2022-10-11T22:51:21.894Z,80.92
2022-10-11T22:53:49.722Z,81.15
2022-10-11T22:56:17.588Z,81.12
2022-10-11T22:58:45.512Z,81.04
2022-10-11T23:01:15.991Z,81.13
2022-10-11T23:03:43.751Z,81.25
2022-10-11T23:06:11.659Z,81.03
2022-10-11T23:08:39.439Z,81.06
2022-10-11T23:11:07.967Z,81.15
2022-10-11T23:13:36.028Z,81.16
2022-10-11T23:16:10.960Z,81.02
2022-10-11T23:18:39.080Z,80.82
2022-10-11T23:21:07.674Z,80.76
2022-10-11T23:23:36.322Z,80.67
2022-10-11T23:26:10.614Z,80.96
2022-10-11T23:28:38.786Z,80.95
2022-10-11T23:31:12.845Z,81.54
2022-10-11T23:33:41.109Z,81.42
2022-10-11T23:36:22.498Z,81.47
2022-10-11T23:38:56.394Z,81.34
2022-10-11T23:41:26.898Z,81.04
2022-10-11T23:43:54.839Z,81.11
2022-10-11T23:46:23.009Z,81.34
2022-10-11T23:48:51.163Z,81.35
2022-10-11T23:51:19.028Z,81.42
2022-10-11T23:53:47.071Z,81.28
2022-10-11T23:56:14.883Z,81.30
2022-10-11T23:58:42.913Z,81.11
